Disclaimer

Please do not use the information listed here in-flight or in-navigation, as they are not provided to us by the airports but are provided by volunteers, so they might be outdated.

Search


Regions


Airport information page

Radio informations:
Brisbane Center - 122.3 MHz
Common traffic adv. frequency (CTAF) - 126.7 MHz

Airport informations:
Latitude: 23° 34' 03.00" S
Longitude: 148° 10' 45.00" E
Elevation: 624 feet - 190 meters
Operating hours: N/A
Operating agency: Civil government, landing fees and diplomatic clearance may be required
Timezone: UTC+10
Fuel: Jet A1, without icing nhibitor.

100/130 MIL Spec, low lead, aviation gasoline (BLUE)

Runway information:
06/24 - 6234 x 98 feet< - >1900 x 30 meters
15/33 - 3038 x 59 feet< - >926 x 18 meters

Recent METARs:
YEML 141500Z AUTO 04005KT 9999 // NCD 23/15 Q1015
YEML 141600Z AUTO 03004KT 9999 // NCD 22/16 Q1015
YEML 141600Z AUTO 03004KT 9999 // NCD 22/16 Q1015

Airport on the map: